sensor_id;sensor_type;location;lat;lon;timestamp;pressure;altitude;pressure_sealevel;temperature;humidity
21640;BME280;10981;45.462;10.974;2022-09-06T00:01:12;101020.94;;;21.16;100.00
21640;BME280;10981;45.462;10.974;2022-09-06T00:03:41;101018.59;;;21.06;100.00
21640;BME280;10981;45.462;10.974;2022-09-06T00:06:13;101031.63;;;21.01;100.00
21640;BME280;10981;45.462;10.974;2022-09-06T00:08:43;101024.97;;;20.97;100.00
21640;BME280;10981;45.462;10.974;2022-09-06T00:11:12;101022.06;;;20.92;100.00
21640;BME280;10981;45.462;10.974;2022-09-06T00:13:41;101018.13;;;20.88;100.00
21640;BME280;10981;45.462;10.974;2022-09-06T00:16:16;101014.19;;;20.84;100.00
21640;BME280;10981;45.462;10.974;2022-09-06T00:18:45;101015.28;;;20.89;100.00
21640;BME280;10981;45.462;10.974;2022-09-06T00:21:16;101012.34;;;20.99;100.00
21640;BME280;10981;45.462;10.974;2022-09-06T00:23:45;101007.75;;;21.08;100.00
21640;BME280;10981;45.462;10.974;2022-09-06T00:26:14;101008.56;;;21.09;100.00
21640;BME280;10981;45.462;10.974;2022-09-06T00:28:44;101003.81;;;21.04;100.00
21640;BME280;10981;45.462;10.974;2022-09-06T00:31:20;101000.25;;;20.97;100.00
21640;BME280;10981;45.462;10.974;2022-09-06T00:33:49;101004.09;;;20.94;100.00
21640;BME280;10981;45.462;10.974;2022-09-06T00:36:19;101003.28;;;20.94;100.00
21640;BME280;10981;45.462;10.974;2022-09-06T00:38:50;101001.44;;;20.94;100.00
21640;BME280;10981;45.462;10.974;2022-09-06T00:41:19;100993.66;;;20.93;100.00
21640;BME280;10981;45.462;10.974;2022-09-06T00:43:47;101002.16;;;20.88;100.00
21640;BME280;10981;45.462;10.974;2022-09-06T00:46:22;101002.09;;;20.81;100.00
21640;BME280;10981;45.462;10.974;2022-09-06T00:49:02;101001.25;;;20.81;100.00
21640;BME280;10981;45.462;10.974;2022-09-06T00:51:32;101001.16;;;20.74;100.00
21640;BME280;10981;45.462;10.974;2022-09-06T00:54:06;100996.69;;;20.74;100.00
21640;BME280;10981;45.462;10.974;2022-09-06T00:56:38;101000.34;;;20.73;100.00
21640;BME280;10981;45.462;10.974;2022-09-06T00:59:07;100991.88;;;20.70;100.00
21640;BME280;10981;45.462;10.974;2022-09-06T01:01:36;100994.25;;;20.65;100.00
21640;BME280;10981;45.462;10.974;2022-09-06T01:04:04;100992.59;;;20.64;100.00
21640;BME280;10981;45.462;10.974;2022-09-06T01:06:51;100991.94;;;20.62;100.00
21640;BME280;10981;45.462;10.974;2022-09-06T01:09:46;100990.13;;;20.62;100.00
21640;BME280;10981;45.462;10.974;2022-09-06T01:15:40;100984.25;;;20.67;100.00
21640;BME280;10981;45.462;10.974;2022-09-06T01:29:55;100994.03;;;20.74;100.00
21640;BME280;10981;45.462;10.974;2022-09-06T01:35:17;100998.91;;;20.63;100.00
21640;BME280;10981;45.462;10.974;2022-09-06T01:37:48;101003.38;;;20.32;100.00
21640;BME280;10981;45.462;10.974;2022-09-06T01:40:17;101006.66;;;20.19;100.00
21640;BME280;10981;45.462;10.974;2022-09-06T01:42:46;101008.72;;;20.09;100.00
21640;BME280;10981;45.462;10.974;2022-09-06T01:45:21;101016.03;;;20.07;100.00
21640;BME280;10981;45.462;10.974;2022-09-06T01:48:15;101014.56;;;20.04;100.00
21640;BME280;10981;45.462;10.974;2022-09-06T01:51:01;101011.91;;;20.04;100.00
21640;BME280;10981;45.462;10.974;2022-09-06T01:54:07;101017.41;;;20.03;100.00
21640;BME280;10981;45.462;10.974;2022-09-06T02:02:12;101023.91;;;20.00;100.00
21640;BME280;10981;45.462;10.974;2022-09-06T02:04:51;101028.44;;;19.91;100.00
21640;BME280;10981;45.462;10.974;2022-09-06T02:07:28;101024.69;;;19.86;100.00
21640;BME280;10981;45.462;10.974;2022-09-06T02:13:05;101020.38;;;19.85;100.00
21640;BME280;10981;45.462;10.974;2022-09-06T02:15:46;101009.94;;;19.83;100.00
21640;BME280;10981;45.462;10.974;2022-09-06T02:18:30;101020.38;;;19.85;100.00
21640;BME280;10981;45.462;10.974;2022-09-06T02:21:00;101010.41;;;19.87;100.00
21640;BME280;10981;45.462;10.974;2022-09-06T02:23:34;101006.44;;;19.83;100.00
21640;BME280;10981;45.462;10.974;2022-09-06T02:26:09;101013.34;;;19.92;100.00
21640;BME280;10981;45.462;10.974;2022-09-06T02:28:41;101010.81;;;19.99;100.00
21640;BME280;10981;45.462;10.974;2022-09-06T02:31:20;101011.47;;;20.01;100.00
21640;BME280;10981;45.462;10.974;2022-09-06T02:33:51;101013.66;;;19.97;100.00
21640;BME280;10981;45.462;10.974;2022-09-06T02:36:20;101013.94;;;20.02;100.00
21640;BME280;10981;45.462;10.974;2022-09-06T02:38:48;101009.09;;;20.06;100.00
21640;BME280;10981;45.462;10.974;2022-09-06T02:41:19;100999.00;;;20.01;100.00
21640;BME280;10981;45.462;10.974;2022-09-06T02:43:49;100997.91;;;19.96;100.00
21640;BME280;10981;45.462;10.974;2022-09-06T02:46:18;100991.09;;;19.93;100.00
21640;BME280;10981;45.462;10.974;2022-09-06T02:48:46;100993.41;;;19.96;100.00
21640;BME280;10981;45.462;10.974;2022-09-06T02:51:17;100994.97;;;20.05;100.00
21640;BME280;10981;45.462;10.974;2022-09-06T02:53:46;100992.59;;;20.11;100.00
21640;BME280;10981;45.462;10.974;2022-09-06T02:56:14;100992.78;;;20.09;100.00
21640;BME280;10981;45.462;10.974;2022-09-06T02:58:43;100992.91;;;19.92;100.00
21640;BME280;10981;45.462;10.974;2022-09-06T03:01:11;100992.44;;;19.89;100.00
21640;BME280;10981;45.462;10.974;2022-09-06T03:03:41;100988.97;;;19.88;100.00
21640;BME280;10981;45.462;10.974;2022-09-06T03:06:09;101001.78;;;19.85;100.00
21640;BME280;10981;45.462;10.974;2022-09-06T03:08:39;101004.28;;;19.78;100.00
21640;BME280;10981;45.462;10.974;2022-09-06T03:11:07;101000.16;;;19.75;100.00
21640;BME280;10981;45.462;10.974;2022-09-06T03:13:38;100999.16;;;19.76;100.00
21640;BME280;10981;45.462;10.974;2022-09-06T03:16:09;101003.13;;;19.81;100.00
21640;BME280;10981;45.462;10.974;2022-09-06T03:18:37;101001.97;;;19.83;100.00
21640;BME280;10981;45.462;10.974;2022-09-06T03:21:05;101003.44;;;19.86;100.00
21640;BME280;10981;45.462;10.974;2022-09-06T03:23:33;100999.41;;;19.90;100.00
21640;BME280;10981;45.462;10.974;2022-09-06T03:26:02;101004.19;;;19.95;100.00
21640;BME280;10981;45.462;10.974;2022-09-06T03:28:32;100999.03;;;19.93;100.00
21640;BME280;10981;45.462;10.974;2022-09-06T03:31:00;101004.59;;;19.60;100.00
21640;BME280;10981;45.462;10.974;2022-09-06T03:33:29;101002.34;;;19.40;100.00
21640;BME280;10981;45.462;10.974;2022-09-06T03:35:59;100996.56;;;19.37;100.00
21640;BME280;10981;45.462;10.974;2022-09-06T03:38:29;100994.28;;;19.34;100.00
21640;BME280;10981;45.462;10.974;2022-09-06T03:40:57;100991.44;;;19.35;100.00
21640;BME280;10981;45.462;10.974;2022-09-06T03:43:27;100993.75;;;19.38;100.00
21640;BME280;10981;45.462;10.974;2022-09-06T03:45:57;100984.44;;;19.42;100.00
21640;BME280;10981;45.462;10.974;2022-09-06T03:48:27;100980.91;;;19.50;100.00
21640;BME280;10981;45.462;10.974;2022-09-06T03:50:57;100981.22;;;19.55;100.00
21640;BME280;10981;45.462;10.974;2022-09-06T03:53:27;100969.94;;;19.53;100.00
21640;BME280;10981;45.462;10.974;2022-09-06T03:55:56;100969.13;;;19.53;100.00
21640;BME280;10981;45.462;10.974;2022-09-06T03:58:29;100966.28;;;19.54;100.00
21640;BME280;10981;45.462;10.974;2022-09-06T04:01:03;100966.59;;;19.59;100.00
21640;BME280;10981;45.462;10.974;2022-09-06T04:03:33;100967.88;;;19.64;100.00
21640;BME280;10981;45.462;10.974;2022-09-06T04:06:01;100967.25;;;19.62;100.00
21640;BME280;10981;45.462;10.974;2022-09-06T04:08:30;100965.78;;;19.59;100.00
21640;BME280;10981;45.462;10.974;2022-09-06T04:10:59;100967.75;;;19.57;100.00
21640;BME280;10981;45.462;10.974;2022-09-06T04:13:28;100974.72;;;19.58;100.00
21640;BME280;10981;45.462;10.974;2022-09-06T04:15:56;100985.38;;;19.50;100.00
21640;BME280;10981;45.462;10.974;2022-09-06T04:18:25;100991.94;;;19.39;100.00
21640;BME280;10981;45.462;10.974;2022-09-06T04:20:54;100996.56;;;19.37;100.00
21640;BME280;10981;45.462;10.974;2022-09-06T04:23:25;100989.84;;;19.26;100.00
21640;BME280;10981;45.462;10.974;2022-09-06T04:25:55;100990.53;;;19.20;100.00
21640;BME280;10981;45.462;10.974;2022-09-06T04:28:24;100987.88;;;19.20;100.00
21640;BME280;10981;45.462;10.974;2022-09-06T04:30:57;100987.06;;;19.19;100.00
21640;BME280;10981;45.462;10.974;2022-09-06T04:33:33;100982.75;;;19.18;100.00
21640;BME280;10981;45.462;10.974;2022-09-06T04:36:03;100983.25;;;19.22;100.00
21640;BME280;10981;45.462;10.974;2022-09-06T04:38:38;100986.00;;;19.28;100.00
21640;BME280;10981;45.462;10.974;2022-09-06T04:41:08;100994.28;;;19.34;100.00
21640;BME280;10981;45.462;10.974;2022-09-06T04:43:37;100990.94;;;19.40;100.00
21640;BME280;10981;45.462;10.974;2022-09-06T04:46:19;100985.97;;;19.37;100.00
21640;BME280;10981;45.462;10.974;2022-09-06T04:48:48;100988.78;;;19.35;100.00
21640;BME280;10981;45.462;10.974;2022-09-06T04:51:17;100987.78;;;19.36;100.00
21640;BME280;10981;45.462;10.974;2022-09-06T04:53:45;100981.31;;;19.39;100.00
21640;BME280;10981;45.462;10.974;2022-09-06T04:56:20;100985.09;;;19.44;100.00
21640;BME280;10981;45.462;10.974;2022-09-06T04:58:50;100983.75;;;19.49;100.00
21640;BME280;10981;45.462;10.974;2022-09-06T05:01:19;100985.84;;;19.53;100.00
21640;BME280;10981;45.462;10.974;2022-09-06T05:03:48;100988.88;;;19.50;100.00
21640;BME280;10981;45.462;10.974;2022-09-06T05:06:21;101002.22;;;19.34;100.00
21640;BME280;10981;45.462;10.974;2022-09-06T05:08:53;101005.75;;;19.26;100.00
21640;BME280;10981;45.462;10.974;2022-09-06T05:11:22;101003.28;;;19.24;100.00
21640;BME280;10981;45.462;10.974;2022-09-06T05:13:50;100998.59;;;19.26;100.00
21640;BME280;10981;45.462;10.974;2022-09-06T05:16:18;100998.72;;;19.33;100.00
21640;BME280;10981;45.462;10.974;2022-09-06T05:18:47;101000.88;;;19.38;100.00
21640;BME280;10981;45.462;10.974;2022-09-06T05:21:15;101006.84;;;19.40;100.00
21640;BME280;10981;45.462;10.974;2022-09-06T05:23:43;101001.00;;;19.44;100.00
21640;BME280;10981;45.462;10.974;2022-09-06T05:26:14;101002.97;;;19.51;100.00
21640;BME280;10981;45.462;10.974;2022-09-06T05:28:42;101003.44;;;19.54;100.00
21640;BME280;10981;45.462;10.974;2022-09-06T05:31:12;101004.03;;;19.65;100.00
21640;BME280;10981;45.462;10.974;2022-09-06T05:33:51;101007.28;;;19.75;100.00
21640;BME280;10981;45.462;10.974;2022-09-06T05:36:21;101005.72;;;19.89;100.00
21640;BME280;10981;45.462;10.974;2022-09-06T05:38:51;101009.63;;;20.01;100.00
21640;BME280;10981;45.462;10.974;2022-09-06T05:41:23;101016.88;;;20.07;100.00
21640;BME280;10981;45.462;10.974;2022-09-06T05:43:52;101015.31;;;20.13;100.00
21640;BME280;10981;45.462;10.974;2022-09-06T05:46:20;101012.06;;;20.26;100.00
21640;BME280;10981;45.462;10.974;2022-09-06T05:48:56;101007.63;;;20.41;100.00
21640;BME280;10981;45.462;10.974;2022-09-06T05:51:28;101000.09;;;20.45;100.00
21640;BME280;10981;45.462;10.974;2022-09-06T05:53:59;101003.16;;;20.57;100.00
21640;BME280;10981;45.462;10.974;2022-09-06T05:56:27;101005.28;;;20.77;100.00
21640;BME280;10981;45.462;10.974;2022-09-06T05:58:55;101010.22;;;20.95;100.00
21640;BME280;10981;45.462;10.974;2022-09-06T06:01:26;101005.81;;;21.17;100.00
21640;BME280;10981;45.462;10.974;2022-09-06T06:03:59;100998.44;;;21.34;100.00
21640;BME280;10981;45.462;10.974;2022-09-06T06:06:28;101004.72;;;21.48;100.00
21640;BME280;10981;45.462;10.974;2022-09-06T06:08:57;101002.88;;;21.63;100.00
21640;BME280;10981;45.462;10.974;2022-09-06T06:11:26;100998.69;;;21.76;100.00
21640;BME280;10981;45.462;10.974;2022-09-06T06:13:55;100997.22;;;21.95;100.00
21640;BME280;10981;45.462;10.974;2022-09-06T06:16:23;101003.69;;;22.07;100.00
21640;BME280;10981;45.462;10.974;2022-09-06T06:18:52;101001.75;;;22.23;100.00
21640;BME280;10981;45.462;10.974;2022-09-06T06:21:22;101003.03;;;22.27;100.00
21640;BME280;10981;45.462;10.974;2022-09-06T06:23:53;101004.78;;;22.41;100.00
21640;BME280;10981;45.462;10.974;2022-09-06T06:26:23;101000.56;;;22.53;100.00
21640;BME280;10981;45.462;10.974;2022-09-06T06:28:51;101001.34;;;22.76;100.00
21640;BME280;10981;45.462;10.974;2022-09-06T06:31:20;100991.72;;;23.23;100.00
21640;BME280;10981;45.462;10.974;2022-09-06T06:33:50;101000.91;;;24.16;100.00
21640;BME280;10981;45.462;10.974;2022-09-06T06:36:20;101000.63;;;24.85;100.00
21640;BME280;10981;45.462;10.974;2022-09-06T06:38:50;101003.75;;;25.20;100.00
21640;BME280;10981;45.462;10.974;2022-09-06T06:41:20;101000.88;;;25.22;100.00
21640;BME280;10981;45.462;10.974;2022-09-06T06:43:55;100998.09;;;25.35;100.00
21640;BME280;10981;45.462;10.974;2022-09-06T06:46:27;100996.34;;;26.18;100.00
21640;BME280;10981;45.462;10.974;2022-09-06T06:48:56;100999.34;;;26.47;100.00
21640;BME280;10981;45.462;10.974;2022-09-06T06:51:29;100999.44;;;26.40;100.00
21640;BME280;10981;45.462;10.974;2022-09-06T06:53:57;101004.94;;;26.27;100.00
21640;BME280;10981;45.462;10.974;2022-09-06T06:56:32;101001.56;;;26.32;100.00
21640;BME280;10981;45.462;10.974;2022-09-06T06:59:04;101006.25;;;26.18;100.00
21640;BME280;10981;45.462;10.974;2022-09-06T07:01:33;101008.59;;;26.07;100.00
21640;BME280;10981;45.462;10.974;2022-09-06T07:04:06;101006.56;;;26.03;100.00
21640;BME280;10981;45.462;10.974;2022-09-06T07:07:01;101018.06;;;26.10;100.00
21640;BME280;10981;45.462;10.974;2022-09-06T07:09:50;101005.75;;;26.27;100.00
21640;BME280;10981;45.462;10.974;2022-09-06T07:12:38;100999.03;;;26.18;100.00
21640;BME280;10981;45.462;10.974;2022-09-06T07:15:07;101004.88;;;26.34;100.00
21640;BME280;10981;45.462;10.974;2022-09-06T07:17:35;101004.22;;;26.57;100.00
21640;BME280;10981;45.462;10.974;2022-09-06T07:20:03;101001.72;;;26.81;100.00
21640;BME280;10981;45.462;10.974;2022-09-06T07:22:41;101009.63;;;26.75;97.94
21640;BME280;10981;45.462;10.974;2022-09-06T07:25:12;101010.09;;;27.21;96.29
21640;BME280;10981;45.462;10.974;2022-09-06T07:27:45;101008.63;;;27.37;99.91
21640;BME280;10981;45.462;10.974;2022-09-06T07:30:16;100998.44;;;27.58;94.85
21640;BME280;10981;45.462;10.974;2022-09-06T07:32:45;101001.78;;;27.84;92.01
21640;BME280;10981;45.462;10.974;2022-09-06T07:35:13;101003.19;;;27.98;89.26
21640;BME280;10981;45.462;10.974;2022-09-06T07:37:41;101008.38;;;28.35;88.27
21640;BME280;10981;45.462;10.974;2022-09-06T07:40:09;101007.16;;;28.79;90.79
21640;BME280;10981;45.462;10.974;2022-09-06T07:42:39;101006.97;;;29.09;87.13
21640;BME280;10981;45.462;10.974;2022-09-06T07:45:10;101009.13;;;29.99;81.67
21640;BME280;10981;45.462;10.974;2022-09-06T07:47:38;101014.00;;;30.19;76.06
21640;BME280;10981;45.462;10.974;2022-09-06T07:50:24;101007.69;;;30.70;75.20
21640;BME280;10981;45.462;10.974;2022-09-06T07:53:12;101005.00;;;31.41;71.61
21640;BME280;10981;45.462;10.974;2022-09-06T07:55:46;101006.84;;;32.01;67.37
21640;BME280;10981;45.462;10.974;2022-09-06T07:58:15;101011.88;;;32.19;65.73
21640;BME280;10981;45.462;10.974;2022-09-06T08:00:43;101011.50;;;32.48;63.71
21640;BME280;10981;45.462;10.974;2022-09-06T08:03:11;101016.09;;;32.53;62.09
21640;BME280;10981;45.462;10.974;2022-09-06T08:05:40;101012.28;;;32.43;65.41
21640;BME280;10981;45.462;10.974;2022-09-06T08:08:29;101010.72;;;31.77;67.91
21640;BME280;10981;45.462;10.974;2022-09-06T08:11:17;101010.19;;;31.48;72.99
21640;BME280;10981;45.462;10.974;2022-09-06T08:13:50;101012.09;;;30.76;69.97
21640;BME280;10981;45.462;10.974;2022-09-06T08:16:20;101013.94;;;30.53;71.49
21640;BME280;10981;45.462;10.974;2022-09-06T08:18:53;101009.56;;;30.30;74.37
21640;BME280;10981;45.462;10.974;2022-09-06T08:21:22;101016.78;;;30.24;75.06
21640;BME280;10981;45.462;10.974;2022-09-06T08:23:53;101015.41;;;30.05;71.83
21640;BME280;10981;45.462;10.974;2022-09-06T08:26:23;101005.06;;;29.84;73.69
21640;BME280;10981;45.462;10.974;2022-09-06T08:29:00;101017.78;;;30.18;72.91
21640;BME280;10981;45.462;10.974;2022-09-06T08:31:30;101023.56;;;30.10;72.91
21640;BME280;10981;45.462;10.974;2022-09-06T08:34:00;101021.69;;;29.93;76.44
21640;BME280;10981;45.462;10.974;2022-09-06T08:36:29;101022.09;;;30.02;74.21
21640;BME280;10981;45.462;10.974;2022-09-06T08:39:03;101025.16;;;30.45;75.80
21640;BME280;10981;45.462;10.974;2022-09-06T08:44:51;101024.44;;;30.49;72.49
21640;BME280;10981;45.462;10.974;2022-09-06T08:47:21;101031.59;;;30.61;74.38
21640;BME280;10981;45.462;10.974;2022-09-06T08:50:10;101023.41;;;30.73;72.60
21640;BME280;10981;45.462;10.974;2022-09-06T08:52:44;101021.81;;;30.99;70.38
21640;BME280;10981;45.462;10.974;2022-09-06T09:01:16;101016.94;;;31.23;68.38
21640;BME280;10981;45.462;10.974;2022-09-06T09:03:46;101016.94;;;30.74;70.80
21640;BME280;10981;45.462;10.974;2022-09-06T09:06:17;101016.16;;;31.01;71.71
21640;BME280;10981;45.462;10.974;2022-09-06T09:09:05;101013.59;;;30.67;71.99
21640;BME280;10981;45.462;10.974;2022-09-06T09:11:34;101012.22;;;30.47;78.86
21640;BME280;10981;45.462;10.974;2022-09-06T09:14:14;101007.44;;;30.49;78.27
21640;BME280;10981;45.462;10.974;2022-09-06T09:16:43;101000.88;;;30.28;78.28
21640;BME280;10981;45.462;10.974;2022-09-06T09:19:13;101002.63;;;30.17;74.73
21640;BME280;10981;45.462;10.974;2022-09-06T09:21:41;100990.16;;;29.94;74.31
21640;BME280;10981;45.462;10.974;2022-09-06T09:24:11;100992.41;;;29.85;76.35
21640;BME280;10981;45.462;10.974;2022-09-06T09:26:53;100992.44;;;30.19;80.60
21640;BME280;10981;45.462;10.974;2022-09-06T09:29:23;100986.47;;;30.00;75.09
21640;BME280;10981;45.462;10.974;2022-09-06T09:31:59;100985.53;;;30.11;79.80
21640;BME280;10981;45.462;10.974;2022-09-06T09:40:00;100976.47;;;30.17;74.35
21640;BME280;10981;45.462;10.974;2022-09-06T09:42:35;100977.22;;;30.13;73.89
21640;BME280;10981;45.462;10.974;2022-09-06T09:45:22;100967.41;;;30.07;74.01
21640;BME280;10981;45.462;10.974;2022-09-06T09:47:51;100970.78;;;30.14;75.76
21640;BME280;10981;45.462;10.974;2022-09-06T09:50:29;100972.53;;;30.25;73.80
21640;BME280;10981;45.462;10.974;2022-09-06T09:53:11;100965.25;;;30.26;74.00
21640;BME280;10981;45.462;10.974;2022-09-06T09:55:41;100969.91;;;29.91;73.05
21640;BME280;10981;45.462;10.974;2022-09-06T10:00:47;100968.03;;;30.31;73.37
21640;BME280;10981;45.462;10.974;2022-09-06T10:03:29;100960.81;;;30.37;73.04
21640;BME280;10981;45.462;10.974;2022-09-06T10:05:58;100962.31;;;30.27;72.71
21640;BME280;10981;45.462;10.974;2022-09-06T10:08:32;100958.34;;;30.35;72.83
21640;BME280;10981;45.462;10.974;2022-09-06T10:11:01;100949.53;;;30.40;74.11
21640;BME280;10981;45.462;10.974;2022-09-06T10:13:31;100949.09;;;30.48;72.97
21640;BME280;10981;45.462;10.974;2022-09-06T10:16:01;100950.06;;;30.42;72.26
21640;BME280;10981;45.462;10.974;2022-09-06T10:18:37;100950.19;;;30.08;72.78
21640;BME280;10981;45.462;10.974;2022-09-06T10:21:14;100950.56;;;30.16;72.54
21640;BME280;10981;45.462;10.974;2022-09-06T10:27:00;100937.50;;;30.47;72.26
21640;BME280;10981;45.462;10.974;2022-09-06T10:29:58;100929.53;;;30.58;71.37
21640;BME280;10981;45.462;10.974;2022-09-06T10:32:48;100935.78;;;30.63;74.07
21640;BME280;10981;45.462;10.974;2022-09-06T10:35:30;100929.25;;;30.59;72.96
21640;BME280;10981;45.462;10.974;2022-09-06T10:40:54;100925.81;;;30.91;72.15
21640;BME280;10981;45.462;10.974;2022-09-06T10:43:34;100921.03;;;30.98;69.03
21640;BME280;10981;45.462;10.974;2022-09-06T10:46:18;100907.53;;;30.98;68.80
21640;BME280;10981;45.462;10.974;2022-09-06T10:48:51;100912.13;;;30.98;65.81
21640;BME280;10981;45.462;10.974;2022-09-06T10:51:27;100907.69;;;30.87;71.12
21640;BME280;10981;45.462;10.974;2022-09-06T10:54:12;100908.34;;;30.99;68.48
21640;BME280;10981;45.462;10.974;2022-09-06T10:59:29;100910.38;;;31.09;72.01
21640;BME280;10981;45.462;10.974;2022-09-06T11:02:24;100906.91;;;31.13;70.90
21640;BME280;10981;45.462;10.974;2022-09-06T11:05:02;100905.94;;;31.03;70.08
21640;BME280;10981;45.462;10.974;2022-09-06T11:08:14;100904.25;;;30.47;72.60
21640;BME280;10981;45.462;10.974;2022-09-06T11:11:15;100892.75;;;30.12;76.26
21640;BME280;10981;45.462;10.974;2022-09-06T11:13:45;100885.13;;;30.26;76.94
21640;BME280;10981;45.462;10.974;2022-09-06T11:16:24;100882.81;;;30.57;74.60
21640;BME280;10981;45.462;10.974;2022-09-06T11:19:09;100876.34;;;30.86;70.11
21640;BME280;10981;45.462;10.974;2022-09-06T11:27:36;100868.78;;;31.47;70.76
21640;BME280;10981;45.462;10.974;2022-09-06T11:30:13;100867.06;;;31.31;70.11
21640;BME280;10981;45.462;10.974;2022-09-06T11:32:45;100860.41;;;31.11;70.64
21640;BME280;10981;45.462;10.974;2022-09-06T11:35:29;100860.66;;;31.47;72.73
21640;BME280;10981;45.462;10.974;2022-09-06T11:40:45;100863.41;;;31.95;67.66
21640;BME280;10981;45.462;10.974;2022-09-06T11:43:50;100865.47;;;32.26;62.48
21640;BME280;10981;45.462;10.974;2022-09-06T11:49:27;100843.41;;;32.96;62.19
21640;BME280;10981;45.462;10.974;2022-09-06T11:51:56;100845.06;;;33.28;60.24
21640;BME280;10981;45.462;10.974;2022-09-06T11:54:40;100842.59;;;33.27;57.99
21640;BME280;10981;45.462;10.974;2022-09-06T11:57:20;100830.69;;;33.17;57.65
21640;BME280;10981;45.462;10.974;2022-09-06T11:59:59;100833.69;;;33.16;57.28
21640;BME280;10981;45.462;10.974;2022-09-06T12:02:36;100824.72;;;33.20;56.01
21640;BME280;10981;45.462;10.974;2022-09-06T12:05:09;100824.72;;;33.36;56.59
21640;BME280;10981;45.462;10.974;2022-09-06T12:11:03;100818.19;;;33.42;55.76
21640;BME280;10981;45.462;10.974;2022-09-06T12:13:42;100824.69;;;33.41;55.25
21640;BME280;10981;45.462;10.974;2022-09-06T12:16:15;100824.19;;;33.34;56.41
21640;BME280;10981;45.462;10.974;2022-09-06T12:21:34;100811.97;;;33.36;58.90
21640;BME280;10981;45.462;10.974;2022-09-06T12:24:04;100805.97;;;33.55;57.18
21640;BME280;10981;45.462;10.974;2022-09-06T12:26:50;100804.34;;;33.54;57.23
21640;BME280;10981;45.462;10.974;2022-09-06T12:29:26;100805.91;;;33.86;56.73
21640;BME280;10981;45.462;10.974;2022-09-06T12:31:56;100799.22;;;34.18;57.04
21640;BME280;10981;45.462;10.974;2022-09-06T12:34:29;100800.91;;;34.59;55.91
21640;BME280;10981;45.462;10.974;2022-09-06T12:37:03;100791.81;;;34.74;53.78
21640;BME280;10981;45.462;10.974;2022-09-06T12:39:32;100796.84;;;34.56;54.42
21640;BME280;10981;45.462;10.974;2022-09-06T12:42:10;100790.78;;;34.64;52.90
21640;BME280;10981;45.462;10.974;2022-09-06T12:44:45;100786.94;;;34.36;51.90
21640;BME280;10981;45.462;10.974;2022-09-06T12:47:27;100781.75;;;34.40;53.05
21640;BME280;10981;45.462;10.974;2022-09-06T12:50:13;100785.91;;;34.21;53.14
21640;BME280;10981;45.462;10.974;2022-09-06T12:52:53;100784.16;;;34.41;53.35
21640;BME280;10981;45.462;10.974;2022-09-06T12:55:29;100780.47;;;34.66;53.88
21640;BME280;10981;45.462;10.974;2022-09-06T12:58:04;100778.28;;;35.03;51.55
21640;BME280;10981;45.462;10.974;2022-09-06T13:00:48;100769.47;;;35.11;52.63
21640;BME280;10981;45.462;10.974;2022-09-06T13:03:26;100750.78;;;35.05;51.25
21640;BME280;10981;45.462;10.974;2022-09-06T13:05:58;100752.84;;;34.83;50.73
21640;BME280;10981;45.462;10.974;2022-09-06T13:08:52;100756.44;;;34.79;49.94
21640;BME280;10981;45.462;10.974;2022-09-06T13:11:33;100750.09;;;35.18;50.17
21640;BME280;10981;45.462;10.974;2022-09-06T13:14:20;100746.47;;;35.52;50.82
21640;BME280;10981;45.462;10.974;2022-09-06T13:16:51;100743.88;;;35.42;49.51
21640;BME280;10981;45.462;10.974;2022-09-06T13:22:00;100733.22;;;35.70;50.11
21640;BME280;10981;45.462;10.974;2022-09-06T13:27:25;100719.56;;;35.26;49.03
21640;BME280;10981;45.462;10.974;2022-09-06T13:30:02;100711.34;;;35.07;49.02
21640;BME280;10981;45.462;10.974;2022-09-06T13:32:32;100718.00;;;35.20;51.34
21640;BME280;10981;45.462;10.974;2022-09-06T13:35:01;100708.69;;;35.50;51.15
21640;BME280;10981;45.462;10.974;2022-09-06T13:37:31;100705.38;;;35.54;51.43
21640;BME280;10981;45.462;10.974;2022-09-06T13:40:00;100703.31;;;35.45;49.56
21640;BME280;10981;45.462;10.974;2022-09-06T13:42:34;100695.97;;;35.46;51.32
21640;BME280;10981;45.462;10.974;2022-09-06T13:45:28;100702.25;;;35.65;51.63
21640;BME280;10981;45.462;10.974;2022-09-06T13:47:57;100700.03;;;35.67;50.18
21640;BME280;10981;45.462;10.974;2022-09-06T13:50:45;100700.94;;;36.20;51.23
21640;BME280;10981;45.462;10.974;2022-09-06T13:53:18;100692.72;;;36.06;48.69
21640;BME280;10981;45.462;10.974;2022-09-06T13:55:47;100691.94;;;35.81;46.25
21640;BME280;10981;45.462;10.974;2022-09-06T13:58:15;100688.94;;;35.64;46.09
21640;BME280;10981;45.462;10.974;2022-09-06T14:00:44;100695.22;;;36.03;49.11
21640;BME280;10981;45.462;10.974;2022-09-06T14:03:40;100680.91;;;35.73;47.38
21640;BME280;10981;45.462;10.974;2022-09-06T14:06:09;100684.16;;;35.31;49.76
21640;BME280;10981;45.462;10.974;2022-09-06T14:08:38;100677.53;;;34.94;49.34
21640;BME280;10981;45.462;10.974;2022-09-06T14:11:26;100675.94;;;34.59;48.79
21640;BME280;10981;45.462;10.974;2022-09-06T14:13:54;100682.59;;;34.42;50.37
21640;BME280;10981;45.462;10.974;2022-09-06T14:16:23;100677.44;;;34.01;48.26
21640;BME280;10981;45.462;10.974;2022-09-06T14:18:51;100671.06;;;33.76;49.89
21640;BME280;10981;45.462;10.974;2022-09-06T14:21:19;100669.38;;;33.25;49.80
21640;BME280;10981;45.462;10.974;2022-09-06T14:23:49;100664.84;;;33.05;53.64